Time;durP1;ratioP1;P1;durP2;ratioP2;P2;SDS_P1;SDS_P2;PMS_P1;PMS_P2;Temp;Humidity;BMP_temperature;BMP_pressure;BME280_temperature;BME280_humidity;BME280_pressure;Samples;Min_cycle;Max_cycle;Signal;HPM_P1;HPM_P2
2023/01/27 00:02:18;;;;;;;0.50;0.50;;;15.40;73.80;;;;;;6213189;23;19997;-66
2023/01/27 00:04:44;;;;;;;0.85;0.70;;;15.40;74.00;;;;;;6215001;23;20199;-66
2023/01/27 00:07:09;;;;;;;1.00;0.85;;;15.40;73.90;;;;;;6214617;23;20001;-66
2023/01/27 00:09:35;;;;;;;2.30;0.70;;;15.40;74.10;;;;;;6214491;23;20004;-66
2023/01/27 00:14:45;;;;;;;0.65;0.55;;;15.30;74.10;;;;;;6214801;23;20012;-66
2023/01/27 00:17:10;;;;;;;0.80;0.65;;;15.30;74.00;;;;;;6213240;23;20005;-66
2023/01/27 00:19:36;;;;;;;0.80;0.80;;;15.30;74.00;;;;;;6214724;23;20033;-66
2023/01/27 00:24:45;;;;;;;0.95;0.60;;;15.30;74.10;;;;;;6214142;23;20058;-66
2023/01/27 00:27:11;;;;;;;0.65;0.47;;;15.30;74.30;;;;;;6214421;23;20036;-66
2023/01/27 00:29:38;;;;;;;1.08;0.73;;;15.20;74.20;;;;;;6214780;23;19996;-66
2023/01/27 00:34:48;;;;;;;0.50;0.50;;;15.30;74.30;;;;;;6214556;23;20011;-66
2023/01/27 00:37:14;;;;;;;0.80;0.43;;;15.20;74.30;;;;;;6214381;23;20340;-66
2023/01/27 00:39:40;;;;;;;0.80;0.60;;;15.20;74.40;;;;;;6212831;23;20027;-66
2023/01/27 00:42:05;;;;;;;1.00;0.57;;;15.20;74.50;;;;;;6213126;23;20340;-66
2023/01/27 00:44:31;;;;;;;0.40;0.40;;;15.20;74.50;;;;;;6214334;23;20003;-65
2023/01/27 00:46:56;;;;;;;0.65;0.60;;;15.20;74.50;;;;;;6214558;23;19997;-66
2023/01/27 00:49:22;;;;;;;0.50;0.50;;;15.20;74.60;;;;;;6212903;23;20007;-66
2023/01/27 00:51:48;;;;;;;0.40;0.40;;;15.20;74.70;;;;;;6213141;23;20004;-66
2023/01/27 00:54:14;;;;;;;0.60;0.52;;;15.10;74.70;;;;;;6214076;23;20341;-66
2023/01/27 00:56:39;;;;;;;1.35;0.65;;;15.10;74.80;;;;;;6214388;23;20032;-66
2023/01/27 00:59:05;;;;;;;0.55;0.55;;;15.10;74.70;;;;;;6214429;23;20050;-66
2023/01/27 01:01:32;;;;;;;0.50;0.50;;;15.10;74.80;;;;;;6212829;23;20039;-66
2023/01/27 01:03:58;;;;;;;0.50;0.50;;;15.10;74.80;;;;;;6213119;23;20000;-66
2023/01/27 01:06:24;;;;;;;0.85;0.50;;;15.10;74.80;;;;;;6214084;23;20005;-66
2023/01/27 01:08:52;;;;;;;0.90;0.70;;;15.10;74.80;;;;;;6214683;23;20000;-66
2023/01/27 01:11:20;;;;;;;0.40;0.40;;;15.10;74.80;;;;;;6212747;23;20412;-66
2023/01/27 01:13:45;;;;;;;1.13;0.30;;;15.10;75.00;;;;;;6214411;23;20001;-66
2023/01/27 01:16:16;;;;;;;0.70;0.50;;;15.10;75.00;;;;;;6212819;23;20477;-66
2023/01/27 01:18:42;;;;;;;0.63;0.60;;;15.00;74.90;;;;;;6212978;23;20001;-66
2023/01/27 01:21:08;;;;;;;1.15;0.60;;;15.00;75.00;;;;;;6214290;23;20001;-66
2023/01/27 01:23:38;;;;;;;0.40;0.40;;;15.00;74.90;;;;;;6212635;23;20425;-66
2023/01/27 01:26:04;;;;;;;0.50;0.40;;;15.00;74.80;;;;;;6188617;23;20017;-66
2023/01/27 01:28:29;;;;;;;0.65;0.50;;;15.00;74.90;;;;;;6212799;23;20031;-66
2023/01/27 01:30:55;;;;;;;0.65;0.55;;;15.00;75.00;;;;;;6214460;23;20055;-66
2023/01/27 01:33:21;;;;;;;0.40;0.40;;;15.00;75.00;;;;;;6214174;23;20005;-66
2023/01/27 01:35:46;;;;;;;1.33;0.60;;;15.00;75.00;;;;;;6214299;23;20004;-66
2023/01/27 01:38:12;;;;;;;0.68;0.55;;;14.90;75.00;;;;;;6215753;23;20036;-66
2023/01/27 01:40:42;;;;;;;0.93;0.40;;;14.90;75.00;;;;;;6216073;23;20016;-66
2023/01/27 01:43:15;;;;;;;2.03;0.47;;;14.90;75.00;;;;;;6214814;23;19997;-66
2023/01/27 01:45:54;;;;;;;0.68;0.28;;;14.90;75.00;;;;;;6216142;23;20003;-66
2023/01/27 01:48:29;;;;;;;0.60;0.57;;;14.90;75.00;;;;;;6214655;23;20004;-66
2023/01/27 01:51:10;;;;;;;0.73;0.70;;;14.90;75.20;;;;;;6216143;23;20029;-66
2023/01/27 01:53:50;;;;;;;0.60;0.47;;;14.90;75.00;;;;;;6214550;23;20004;-66
2023/01/27 01:56:23;;;;;;;0.90;0.50;;;14.90;75.00;;;;;;6216040;23;20028;-66
2023/01/27 01:58:48;;;;;;;0.88;0.50;;;14.90;75.10;;;;;;6190234;23;20008;-66
2023/01/27 02:01:15;;;;;;;0.98;0.68;;;14.90;75.20;;;;;;6214396;23;20000;-66
2023/01/27 02:03:41;;;;;;;0.40;0.40;;;14.90;75.20;;;;;;6189466;23;20004;-66
2023/01/27 02:06:07;;;;;;;1.02;0.60;;;14.80;75.20;;;;;;6214238;23;19997;-66
2023/01/27 02:08:37;;;;;;;0.50;0.50;;;14.90;75.20;;;;;;6214360;23;20028;-66
2023/01/27 02:11:04;;;;;;;0.45;0.40;;;14.90;75.30;;;;;;6190160;23;20344;-65
2023/01/27 02:13:30;;;;;;;1.20;0.50;;;14.90;75.30;;;;;;6214278;23;20001;-66
2023/01/27 02:15:56;;;;;;;0.60;0.40;;;14.80;75.40;;;;;;6215662;23;20448;-66
2023/01/27 02:18:21;;;;;;;1.20;0.50;;;14.80;75.40;;;;;;6214330;23;20000;-66
2023/01/27 02:20:49;;;;;;;0.57;0.40;;;14.80;76.40;;;;;;6215546;23;20001;-66
2023/01/27 02:23:47;;;;;;;0.50;0.47;;;14.80;75.40;;;;;;6189509;23;20021;-66
2023/01/27 02:26:29;;;;;;;0.77;0.40;;;14.80;75.40;;;;;;6191454;23;20012;-66
2023/01/27 02:28:56;;;;;;;0.35;0.35;;;14.80;75.40;;;;;;6215773;23;20060;-66
2023/01/27 02:31:21;;;;;;;0.57;0.47;;;14.80;75.50;;;;;;6215711;23;20035;-66
2023/01/27 02:33:47;;;;;;;0.47;0.47;;;14.80;75.70;;;;;;6215720;23;20001;-66
2023/01/27 02:36:13;;;;;;;0.50;0.50;;;14.80;75.60;;;;;;6215503;23;20000;-66
2023/01/27 02:38:44;;;;;;;0.50;0.40;;;14.70;75.70;;;;;;6188990;23;20434;-66
2023/01/27 02:41:28;;;;;;;0.40;0.40;;;14.70;75.90;;;;;;6190067;23;20007;-66
2023/01/27 02:43:55;;;;;;;0.30;0.30;;;14.70;75.80;;;;;;6192184;23;20001;-66
2023/01/27 02:46:20;;;;;;;0.68;0.45;;;14.80;75.90;;;;;;6214216;23;20124;-66
2023/01/27 02:48:46;;;;;;;0.43;0.30;;;14.70;75.70;;;;;;6188757;23;20020;-66
2023/01/27 02:51:12;;;;;;;0.45;0.40;;;14.70;75.70;;;;;;6213726;23;20012;-66
2023/01/27 02:53:38;;;;;;;0.32;0.30;;;14.70;75.60;;;;;;6189056;23;20005;-66
2023/01/27 02:56:04;;;;;;;1.17;0.47;;;14.70;75.90;;;;;;6214196;23;20111;-66
2023/01/27 02:58:29;;;;;;;0.50;0.40;;;14.70;75.80;;;;;;6188934;23;20015;-66
2023/01/27 03:00:55;;;;;;;0.80;0.50;;;14.70;75.90;;;;;;6215436;23;20072;-66
2023/01/27 03:03:21;;;;;;;0.75;0.55;;;14.70;76.00;;;;;;6215213;23;20315;-66
2023/01/27 03:05:46;;;;;;;0.80;0.43;;;14.70;76.10;;;;;;6215026;23;20463;-66
2023/01/27 03:08:12;;;;;;;0.50;0.40;;;14.70;76.00;;;;;;6189028;23;20433;-66
2023/01/27 03:10:38;;;;;;;0.60;0.50;;;14.60;76.10;;;;;;6215239;23;20009;-66
2023/01/27 03:13:03;;;;;;;0.52;0.50;;;14.70;76.20;;;;;;6215162;23;20000;-66
2023/01/27 03:18:14;;;;;;;0.82;0.45;;;14.60;76.30;;;;;;6192472;23;20070;-66
2023/01/27 03:20:41;;;;;;;0.75;0.50;;;14.60;76.30;;;;;;6215134;23;20084;-66
2023/01/27 03:23:07;;;;;;;0.40;0.40;;;14.60;76.50;;;;;;6215170;23;19996;-66
2023/01/27 03:25:32;;;;;;;3.80;0.50;;;14.60;76.30;;;;;;6215046;23;20071;-66
2023/01/27 03:27:58;;;;;;;0.50;0.40;;;14.60;76.50;;;;;;6215104;23;20032;-66
2023/01/27 03:30:25;;;;;;;0.52;0.32;;;14.60;76.40;;;;;;6215038;23;20001;-65
2023/01/27 03:32:51;;;;;;;0.52;0.40;;;14.60;76.40;;;;;;6214992;23;20004;-66
2023/01/27 03:35:16;;;;;;;0.93;0.45;;;14.60;76.50;;;;;;6215063;23;20504;-66
2023/01/27 03:48:39;;;;;;;0.57;0.30;;;14.50;76.50;;;;;;6213540;23;20055;-66
2023/01/27 03:51:06;;;;;;;0.55;0.40;;;14.50;76.50;;;;;;6188555;23;20377;-66
2023/01/27 03:53:32;;;;;;;0.32;0.32;;;14.50;76.60;;;;;;6188636;23;20054;-66
2023/01/27 03:55:58;;;;;;;0.73;0.40;;;14.50;76.70;;;;;;6213409;23;20005;-66
2023/01/27 03:58:25;;;;;;;0.47;0.47;;;14.50;76.60;;;;;;6213485;23;20179;-66
2023/01/27 04:00:52;;;;;;;0.80;0.50;;;14.50;76.70;;;;;;6214924;23;20011;-66
2023/01/27 04:09:11;;;;;;;1.23;0.40;;;14.50;76.70;;;;;;6213592;23;20507;-66
2023/01/27 04:11:54;;;;;;;0.47;0.40;;;14.50;76.80;;;;;;6213251;23;20499;-66
2023/01/27 04:14:36;;;;;;;0.57;0.30;;;14.50;76.80;;;;;;6191658;23;20008;-66
2023/01/27 04:17:10;;;;;;;0.47;0.30;;;14.50;76.80;;;;;;6213016;23;20055;-65
2023/01/27 04:19:36;;;;;;;0.43;0.30;;;14.50;76.90;;;;;;6215476;23;20028;-65
2023/01/27 04:22:01;;;;;;;0.30;0.30;;;14.40;76.90;;;;;;6188851;23;20000;-65
2023/01/27 04:24:27;;;;;;;0.30;0.30;;;14.40;76.70;;;;;;6215040;23;20004;-65
2023/01/27 04:27:00;;;;;;;0.40;0.40;;;14.40;77.90;;;;;;6215601;23;20007;-65
2023/01/27 04:29:31;;;;;;;0.60;0.30;;;14.40;76.80;;;;;;6213924;23;20315;-66
2023/01/27 04:31:57;;;;;;;0.40;0.40;;;14.40;76.90;;;;;;6215093;23;20376;-65
2023/01/27 04:34:23;;;;;;;0.65;0.40;;;14.40;76.80;;;;;;6215370;23;20005;-65
2023/01/27 04:36:49;;;;;;;0.43;0.40;;;14.40;76.80;;;;;;6213628;23;20484;-65
2023/01/27 04:39:15;;;;;;;1.15;0.40;;;14.40;77.10;;;;;;6188546;23;20004;-65
2023/01/27 04:41:41;;;;;;;1.00;0.47;;;14.40;77.00;;;;;;6215172;23;20001;-65
2023/01/27 04:44:07;;;;;;;0.55;0.40;;;14.40;77.20;;;;;;6214038;23;20422;-65
2023/01/27 04:46:33;;;;;;;0.60;0.50;;;14.40;77.00;;;;;;6213619;23;20001;-65
2023/01/27 04:48:59;;;;;;;0.47;0.40;;;14.40;77.00;;;;;;6215311;23;19996;-65
2023/01/27 04:51:25;;;;;;;0.60;0.40;;;14.40;77.00;;;;;;6213918;23;20441;-65
2023/01/27 04:53:51;;;;;;;1.52;0.50;;;14.40;77.20;;;;;;6213750;23;20008;-65
2023/01/27 04:56:23;;;;;;;0.60;0.40;;;14.40;77.00;;;;;;6215434;23;20000;-65
2023/01/27 04:58:49;;;;;;;0.40;0.40;;;14.40;77.00;;;;;;6215268;23;20004;-65
2023/01/27 05:01:15;;;;;;;0.57;0.30;;;14.40;77.10;;;;;;6214930;23;20474;-65
2023/01/27 05:03:41;;;;;;;0.20;0.20;;;14.40;77.20;;;;;;6214917;23;20321;-65
2023/01/27 05:06:08;;;;;;;0.47;0.35;;;14.30;77.00;;;;;;6215432;23;20003;-65
2023/01/27 05:08:34;;;;;;;0.38;0.30;;;14.40;77.20;;;;;;6213698;23;20001;-65
2023/01/27 05:11:00;;;;;;;0.20;0.20;;;14.30;77.20;;;;;;6215176;23;20011;-65
2023/01/27 05:13:25;;;;;;;0.28;0.28;;;14.30;77.20;;;;;;6215386;23;20362;-65
2023/01/27 05:15:51;;;;;;;0.55;0.30;;;14.30;77.00;;;;;;6216955;23;20007;-65
2023/01/27 05:18:16;;;;;;;2.38;0.28;;;14.30;77.20;;;;;;6215823;23;20011;-65
2023/01/27 05:20:42;;;;;;;0.70;0.30;;;14.30;77.10;;;;;;6217007;23;20087;-65
2023/01/27 05:25:52;;;;;;;0.30;0.30;;;14.30;77.20;;;;;;6216723;23;20028;-66
2023/01/27 05:28:17;;;;;;;0.20;0.20;;;14.30;77.20;;;;;;6216956;23;20001;-65
2023/01/27 05:30:43;;;;;;;0.30;0.30;;;14.30;77.20;;;;;;6215332;23;20005;-65
2023/01/27 05:33:09;;;;;;;0.80;0.50;;;14.30;77.20;;;;;;6217080;23;20001;-65
2023/01/27 05:35:35;;;;;;;0.63;0.30;;;14.30;77.20;;;;;;6216883;23;20011;-65
2023/01/27 05:38:01;;;;;;;0.20;0.20;;;14.30;77.20;;;;;;6216923;23;20028;-65
2023/01/27 05:40:26;;;;;;;0.20;0.20;;;14.30;77.40;;;;;;6215207;23;20032;-65
2023/01/27 05:42:52;;;;;;;0.98;0.40;;;14.30;77.30;;;;;;6217021;23;20087;-65
2023/01/27 05:45:18;;;;;;;0.50;0.30;;;14.20;77.30;;;;;;6216471;23;20012;-65
2023/01/27 05:47:48;;;;;;;0.35;0.30;;;14.30;77.40;;;;;;6215264;23;20001;-65
2023/01/27 05:50:14;;;;;;;0.30;0.30;;;14.30;77.30;;;;;;6216976;23;20026;-65
2023/01/27 05:52:40;;;;;;;0.40;0.30;;;14.30;77.20;;;;;;6216675;23;20406;-65
2023/01/27 05:55:06;;;;;;;0.22;0.20;;;14.20;77.20;;;;;;6216580;23;20011;-65
2023/01/27 05:57:32;;;;;;;0.30;0.30;;;14.20;77.30;;;;;;6214889;23;20023;-65
2023/01/27 05:59:57;;;;;;;0.40;0.30;;;14.20;77.30;;;;;;6216600;23;20000;-65
2023/01/27 06:02:23;;;;;;;0.57;0.30;;;14.20;77.30;;;;;;6216873;23;20001;-65
2023/01/27 06:04:48;;;;;;;0.20;0.20;;;14.20;77.30;;;;;;6216477;23;20007;-65
2023/01/27 06:07:14;;;;;;;1.58;0.35;;;14.20;77.30;;;;;;6216654;23;20067;-65
2023/01/27 06:09:40;;;;;;;0.25;0.25;;;14.20;77.20;;;;;;6216579;23;20067;-65
2023/01/27 06:12:05;;;;;;;1.85;0.40;;;14.20;77.30;;;;;;6216274;23;20075;-65
2023/01/27 06:14:31;;;;;;;1.45;0.30;;;14.20;77.30;;;;;;6216436;23;20004;-65
2023/01/27 06:16:58;;;;;;;1.08;0.30;;;14.20;77.40;;;;;;6216536;23;20005;-65
2023/01/27 06:19:24;;;;;;;1.45;0.20;;;14.10;78.40;;;;;;6216426;23;20075;-65
2023/01/27 06:21:49;;;;;;;0.30;0.30;;;14.10;77.40;;;;;;6216289;23;20433;-65
2023/01/27 06:24:15;;;;;;;0.47;0.30;;;14.20;77.60;;;;;;6215641;23;20008;-65
2023/01/27 06:26:41;;;;;;;0.35;0.28;;;14.10;77.50;;;;;;6215286;23;20031;-65
2023/01/27 06:29:06;;;;;;;0.57;0.20;;;14.10;77.40;;;;;;6215527;23;20437;-65
2023/01/27 06:31:32;;;;;;;0.20;0.20;;;14.20;77.40;;;;;;6215780;23;20001;-65
2023/01/27 06:33:58;;;;;;;0.43;0.30;;;14.10;77.50;;;;;;6214012;23;20005;-65
2023/01/27 06:36:23;;;;;;;0.35;0.22;;;14.10;77.50;;;;;;6215569;23;20004;-65
2023/01/27 06:38:50;;;;;;;0.68;0.30;;;14.10;77.70;;;;;;6215675;23;20074;-65
2023/01/27 06:41:15;;;;;;;0.43;0.20;;;14.10;77.70;;;;;;6189123;23;20437;-65
2023/01/27 06:43:41;;;;;;;0.75;0.45;;;14.10;77.60;;;;;;6215507;23;20064;-65
2023/01/27 06:46:06;;;;;;;0.20;0.20;;;14.10;77.60;;;;;;6214194;23;20444;-65
2023/01/27 06:48:32;;;;;;;0.38;0.20;;;14.10;77.60;;;;;;6215670;23;20007;-65
2023/01/27 06:50:58;;;;;;;0.30;0.20;;;14.10;77.60;;;;;;6215665;23;20001;-65
2023/01/27 06:53:24;;;;;;;0.30;0.20;;;14.10;77.50;;;;;;6216048;23;20005;-65
2023/01/27 06:55:57;;;;;;;0.38;0.30;;;14.10;77.50;;;;;;6215213;23;20322;-65
2023/01/27 06:58:22;;;;;;;2.17;0.30;;;14.10;77.60;;;;;;6214062;23;20004;-65
2023/01/27 07:00:48;;;;;;;0.22;0.20;;;14.10;77.90;;;;;;6215332;23;20341;-65
2023/01/27 07:03:14;;;;;;;0.45;0.40;;;14.10;77.70;;;;;;6215469;23;20086;-65
2023/01/27 07:05:39;;;;;;;0.30;0.30;;;14.10;77.70;;;;;;6215425;23;19997;-65
2023/01/27 07:08:05;;;;;;;0.22;0.20;;;14.10;77.70;;;;;;6213848;23;20001;-65
2023/01/27 07:10:31;;;;;;;0.28;0.20;;;14.10;77.50;;;;;;6215191;23;20005;-65
2023/01/27 07:13:10;;;;;;;1.75;0.20;;;14.10;77.60;;;;;;6213882;23;20008;-65
2023/01/27 07:15:35;;;;;;;0.20;0.20;;;14.10;77.50;;;;;;6215322;23;20008;-65
2023/01/27 07:18:01;;;;;;;0.70;0.70;;;14.10;77.40;;;;;;6213814;23;20866;-65
2023/01/27 07:20:27;;;;;;;0.20;0.20;;;14.10;77.30;;;;;;6213747;23;20341;-65
2023/01/27 07:22:58;;;;;;;0.45;0.40;;;14.10;77.20;;;;;;6213898;23;20005;-65
2023/01/27 07:25:24;;;;;;;0.50;0.20;;;14.00;76.90;;;;;;6188948;23;20012;-68
2023/01/27 07:27:50;;;;;;;0.57;0.20;;;14.10;76.80;;;;;;6213706;23;20007;-68
2023/01/27 07:30:15;;;;;;;0.65;0.40;;;14.10;76.70;;;;;;6213729;23;20001;-68
2023/01/27 07:32:41;;;;;;;0.20;0.20;;;14.10;76.50;;;;;;6215227;23;20012;-68
2023/01/27 07:35:07;;;;;;;0.25;0.25;;;14.00;76.50;;;;;;6214840;23;20005;-68
2023/01/27 07:37:33;;;;;;;2.22;0.30;;;14.00;76.50;;;;;;6215201;23;20334;-68
2023/01/27 07:39:58;;;;;;;1.55;0.20;;;14.00;76.50;;;;;;6214564;23;20011;-68
2023/01/27 07:42:24;;;;;;;0.30;0.30;;;14.00;76.40;;;;;;6214842;23;20031;-68
2023/01/27 07:44:49;;;;;;;1.38;0.20;;;14.00;76.40;;;;;;6213561;23;20007;-68
2023/01/27 07:47:15;;;;;;;0.30;0.30;;;14.00;76.30;;;;;;6215045;23;20004;-68
2023/01/27 07:49:41;;;;;;;4.32;0.60;;;14.00;76.20;;;;;;6215133;23;20004;-68
2023/01/27 07:52:06;;;;;;;2.42;0.60;;;14.00;76.20;;;;;;6213285;23;20376;-68
2023/01/27 07:54:32;;;;;;;3.78;0.60;;;14.00;76.30;;;;;;6212012;23;20441;-68
2023/01/27 07:57:01;;;;;;;3.55;0.70;;;13.90;76.30;;;;;;6214998;23;20007;-68
2023/01/27 07:59:27;;;;;;;2.92;0.80;;;13.90;76.30;;;;;;6213581;23;20000;-68
2023/01/27 08:01:52;;;;;;;4.47;0.90;;;13.90;76.40;;;;;;6214728;23;20051;-68
2023/01/27 08:04:18;;;;;;;2.55;0.60;;;13.90;76.50;;;;;;6214797;23;20402;-68
2023/01/27 08:06:44;;;;;;;5.32;1.27;;;13.90;76.50;;;;;;6214709;23;20436;-68
2023/01/27 08:09:09;;;;;;;3.65;1.17;;;13.90;76.50;;;;;;6213046;23;20325;-68
2023/01/27 08:11:35;;;;;;;5.30;1.38;;;13.90;76.50;;;;;;6187609;23;20059;-68
2023/01/27 08:14:01;;;;;;;2.95;0.80;;;13.90;76.50;;;;;;6211534;23;20011;-68
2023/01/27 08:16:26;;;;;;;6.45;0.90;;;13.80;76.40;;;;;;6188193;23;20012;-68
2023/01/27 08:18:52;;;;;;;3.22;0.90;;;13.90;76.50;;;;;;6213189;23;20510;-68
2023/01/27 08:21:18;;;;;;;2.70;0.80;;;13.80;76.40;;;;;;6214692;23;20011;-68
2023/01/27 08:23:44;;;;;;;2.38;0.82;;;13.80;76.40;;;;;;6214441;23;19996;-68
2023/01/27 08:26:09;;;;;;;2.58;1.25;;;13.80;76.40;;;;;;6213010;23;20017;-68
2023/01/27 08:28:36;;;;;;;3.42;0.88;;;13.80;76.40;;;;;;6213202;23;20020;-68
2023/01/27 08:31:13;;;;;;;4.43;1.55;;;13.80;76.40;;;;;;6212979;23;20000;-68
2023/01/27 08:33:38;;;;;;;4.28;1.10;;;13.80;76.30;;;;;;6213393;23;20020;-68
2023/01/27 08:36:06;;;;;;;4.25;1.27;;;13.80;76.40;;;;;;6212872;23;20055;-68
2023/01/27 08:38:33;;;;;;;3.38;1.00;;;13.80;76.30;;;;;;6188087;23;20079;-68
2023/01/27 08:41:02;;;;;;;5.72;1.33;;;13.80;76.40;;;;;;6212979;23;20314;-68
2023/01/27 08:43:28;;;;;;;2.03;1.10;;;13.80;76.30;;;;;;6188565;23;20004;-68
2023/01/27 08:45:55;;;;;;;3.05;0.93;;;13.80;76.30;;;;;;6212684;23;20004;-68
2023/01/27 08:48:21;;;;;;;2.50;1.00;;;13.80;76.30;;;;;;6214309;23;20020;-68
2023/01/27 08:50:47;;;;;;;3.63;1.30;;;13.70;76.30;;;;;;6214544;23;20396;-68
2023/01/27 08:53:12;;;;;;;2.30;1.00;;;13.70;76.20;;;;;;6214129;23;20000;-68
2023/01/27 08:55:38;;;;;;;4.38;1.10;;;13.70;76.20;;;;;;6214392;23;20072;-68
2023/01/27 08:58:04;;;;;;;4.10;1.20;;;13.70;76.20;;;;;;6214319;23;20388;-68
2023/01/27 09:00:29;;;;;;;1.25;0.90;;;13.70;76.20;;;;;;6214422;23;20444;-68
2023/01/27 09:02:55;;;;;;;3.55;1.17;;;13.70;76.20;;;;;;6214331;23;20031;-68
2023/01/27 09:05:21;;;;;;;3.92;0.98;;;13.70;76.20;;;;;;6213012;23;20056;-68
2023/01/27 09:07:46;;;;;;;3.22;1.20;;;13.70;76.20;;;;;;6214264;23;20020;-68
2023/01/27 09:10:13;;;;;;;4.43;1.08;;;13.70;76.20;;;;;;6214390;23;20003;-68
2023/01/27 09:12:39;;;;;;;3.00;1.00;;;13.70;76.20;;;;;;6214128;23;20011;-68
2023/01/27 09:15:05;;;;;;;5.22;1.40;;;13.70;76.10;;;;;;6212911;23;20024;-68
2023/01/27 09:17:31;;;;;;;4.78;1.23;;;13.70;76.20;;;;;;6214395;23;20390;-68
2023/01/27 09:19:56;;;;;;;3.58;1.00;;;13.70;77.20;;;;;;6212798;23;20028;-68
2023/01/27 09:22:22;;;;;;;3.78;1.15;;;13.70;76.20;;;;;;6214196;23;19997;-68
2023/01/27 09:24:48;;;;;;;2.78;1.10;;;13.60;76.10;;;;;;6212631;23;20084;-68
2023/01/27 09:27:13;;;;;;;2.67;0.98;;;13.60;76.20;;;;;;6214219;23;19996;-68
2023/01/27 09:29:39;;;;;;;3.47;0.90;;;13.60;76.10;;;;;;6214387;23;20005;-68
2023/01/27 09:32:05;;;;;;;5.50;1.40;;;13.70;76.20;;;;;;6214067;23;20086;-68
2023/01/27 09:34:30;;;;;;;3.75;1.10;;;13.60;76.10;;;;;;6214387;23;20337;-68
2023/01/27 09:37:10;;;;;;;2.90;1.35;;;13.60;76.10;;;;;;6214070;23;20340;-68
2023/01/27 09:39:38;;;;;;;3.90;1.27;;;13.60;76.20;;;;;;6213117;23;20437;-68
2023/01/27 09:42:55;;;;;;;3.33;1.13;;;13.60;76.10;;;;;;6188118;23;20016;-68
2023/01/27 09:45:49;;;;;;;1.70;0.90;;;13.60;76.00;;;;;;6163412;23;20047;-68
2023/01/27 09:48:53;;;;;;;1.85;0.88;;;13.60;76.00;;;;;;6188925;23;19996;-68
2023/01/27 09:51:38;;;;;;;3.55;0.90;;;13.60;76.00;;;;;;6214028;23;20351;-68
2023/01/27 09:54:24;;;;;;;2.67;1.10;;;13.60;76.20;;;;;;6212642;23;20008;-68
2023/01/27 09:57:12;;;;;;;2.75;0.93;;;13.60;76.10;;;;;;6212829;23;20005;-68
2023/01/27 09:59:53;;;;;;;3.20;1.10;;;13.50;76.10;;;;;;6214933;23;20032;-68
2023/01/27 10:02:43;;;;;;;2.97;1.10;;;13.50;76.00;;;;;;6214382;23;20000;-68
2023/01/27 10:05:27;;;;;;;3.55;1.02;;;13.50;76.10;;;;;;6215478;23;20004;-68
2023/01/27 10:08:21;;;;;;;2.17;0.93;;;13.50;76.00;;;;;;6215769;23;20001;-68
2023/01/27 10:10:52;;;;;;;4.25;1.10;;;13.50;76.00;;;;;;6215910;23;20004;-68
2023/01/27 10:13:44;;;;;;;2.10;1.17;;;13.60;76.00;;;;;;6215708;23;20563;-68
2023/01/27 10:16:22;;;;;;;1.85;1.00;;;13.50;76.00;;;;;;6209949;23;20008;-68
2023/01/27 10:19:14;;;;;;;3.20;1.00;;;13.50;76.00;;;;;;6215486;23;20009;-68
2023/01/27 10:22:08;;;;;;;1.92;0.80;;;13.50;76.00;;;;;;6215715;23;20001;-68
2023/01/27 10:24:55;;;;;;;;;;;13.50;76.00;;;;;;6216346;23;20016;-68
2023/01/27 10:27:22;;;;;;;2.17;1.00;;;13.50;76.00;;;;;;6215579;23;19911;-68
2023/01/27 10:29:55;;;;;;;2.55;0.90;;;13.50;76.00;;;;;;6214243;23;20405;-68
2023/01/27 10:32:37;;;;;;;1.95;0.80;;;13.50;76.00;;;;;;6188826;23;20004;-68
2023/01/27 10:35:14;;;;;;;1.65;0.73;;;13.50;76.10;;;;;;6215482;23;20001;-68
2023/01/27 10:37:39;;;;;;;2.55;0.90;;;13.50;76.00;;;;;;6214114;23;20051;-68
2023/01/27 10:40:18;;;;;;;3.85;1.08;;;13.50;76.00;;;;;;6215525;23;20001;-68
2023/01/27 10:42:46;;;;;;;1.98;1.00;;;13.40;75.90;;;;;;6214288;23;20024;-68
2023/01/27 10:45:26;;;;;;;1.40;0.82;;;13.40;76.00;;;;;;6213948;23;19997;-68
2023/01/27 10:48:14;;;;;;;1.92;0.93;;;13.40;75.90;;;;;;6213750;23;20054;-68
2023/01/27 10:51:00;;;;;;;0.98;0.70;;;13.40;76.90;;;;;;6214234;23;20005;-68
2023/01/27 10:53:33;;;;;;;1.63;0.80;;;13.40;75.90;;;;;;6215393;23;20466;-68
2023/01/27 10:56:18;;;;;;;4.43;1.13;;;13.40;75.90;;;;;;6190068;23;20008;-68
2023/01/27 10:58:51;;;;;;;1.60;0.80;;;13.40;75.90;;;;;;6214208;23;20008;-68
2023/01/27 11:01:21;;;;;;;2.13;0.95;;;13.40;75.90;;;;;;6213978;23;20024;-68
2023/01/27 11:03:53;;;;;;;1.65;0.88;;;13.40;75.90;;;;;;6189213;23;20004;-68
2023/01/27 11:06:28;;;;;;;2.55;0.88;;;13.40;75.90;;;;;;6213818;23;20055;-68
2023/01/27 11:09:21;;;;;;;1.85;0.90;;;13.40;75.90;;;;;;6213865;23;20000;-68
2023/01/27 11:11:48;;;;;;;1.45;0.70;;;13.40;75.80;;;;;;6193470;23;20318;-68
2023/01/27 11:14:27;;;;;;;3.65;1.10;;;13.40;75.80;;;;;;6189045;23;20460;-68
2023/01/27 11:17:24;;;;;;;1.63;0.85;;;13.30;75.80;;;;;;6213477;23;20000;-68
2023/01/27 11:20:02;;;;;;;1.58;0.70;;;13.40;75.80;;;;;;6193708;23;20012;-68
2023/01/27 11:22:37;;;;;;;0.98;0.70;;;13.40;75.90;;;;;;6215273;23;20001;-68
2023/01/27 11:25:17;;;;;;;1.25;0.40;;;13.30;75.80;;;;;;6189551;23;20012;-68
2023/01/27 11:28:09;;;;;;;1.15;0.80;;;13.30;75.80;;;;;;6215138;23;20075;-68
2023/01/27 11:30:42;;;;;;;2.47;1.10;;;13.30;75.80;;;;;;6192023;23;20035;-68
2023/01/27 11:33:15;;;;;;;1.55;0.80;;;13.30;75.80;;;;;;6189066;23;20005;-68
2023/01/27 11:35:42;;;;;;;1.27;0.60;;;13.30;75.80;;;;;;6213615;23;20476;-68
2023/01/27 11:38:13;;;;;;;1.00;0.68;;;13.30;75.80;;;;;;6214935;23;20000;-68
2023/01/27 11:40:40;;;;;;;2.40;0.82;;;13.30;75.70;;;;;;6188700;23;20012;-68
2023/01/27 11:43:06;;;;;;;0.90;0.70;;;13.30;75.70;;;;;;6213549;23;20024;-68
2023/01/27 11:45:34;;;;;;;0.70;0.60;;;13.30;75.80;;;;;;6188941;23;20023;-68
2023/01/27 11:48:00;;;;;;;1.70;0.82;;;13.30;75.70;;;;;;6188827;23;20003;-68
2023/01/27 11:50:28;;;;;;;1.75;0.65;;;13.30;75.70;;;;;;6213368;23;20440;-68
2023/01/27 11:53:15;;;;;;;1.08;0.63;;;13.30;75.70;;;;;;6188774;23;20012;-68
2023/01/27 11:56:02;;;;;;;1.65;0.70;;;13.30;75.70;;;;;;6192037;23;20005;-68
2023/01/27 11:58:35;;;;;;;0.80;0.50;;;13.30;75.70;;;;;;6188725;23;20016;-67
2023/01/27 12:01:03;;;;;;;0.93;0.50;;;13.20;75.70;;;;;;6188705;23;20091;-68
2023/01/27 12:03:56;;;;;;;1.42;0.68;;;13.30;75.70;;;;;;6213516;23;20378;-68
2023/01/27 12:06:38;;;;;;;1.30;0.60;;;13.20;75.60;;;;;;6213319;23;20000;-68
2023/01/27 12:09:04;;;;;;;2.63;0.80;;;13.20;75.60;;;;;;6190642;23;20005;-68
2023/01/27 12:11:30;;;;;;;3.10;1.00;;;13.20;75.60;;;;;;6213476;23;20012;-68
2023/01/27 12:13:58;;;;;;;1.10;0.63;;;13.20;75.60;;;;;;6213202;23;20012;-68
2023/01/27 12:16:28;;;;;;;1.30;0.57;;;13.20;75.60;;;;;;6213022;23;20033;-68
2023/01/27 12:18:57;;;;;;;1.10;0.60;;;13.20;75.70;;;;;;6213354;23;20000;-68
2023/01/27 12:21:33;;;;;;;0.68;0.50;;;13.20;75.70;;;;;;6212775;23;20007;-68
2023/01/27 12:23:59;;;;;;;1.38;0.70;;;13.20;75.60;;;;;;6213307;23;20032;-68
2023/01/27 12:26:36;;;;;;;1.15;0.57;;;13.20;75.60;;;;;;6212863;23;20009;-68
2023/01/27 12:29:06;;;;;;;0.65;0.52;;;13.20;75.60;;;;;;6213096;23;20044;-68
2023/01/27 12:31:41;;;;;;;0.45;0.40;;;13.20;75.60;;;;;;6213030;23;20524;-68
2023/01/27 12:34:22;;;;;;;0.93;0.80;;;13.20;75.60;;;;;;6189922;23;20004;-68
2023/01/27 12:36:48;;;;;;;0.77;0.60;;;13.20;75.70;;;;;;6213385;23;20006;-68
2023/01/27 12:39:28;;;;;;;0.82;0.50;;;13.20;75.60;;;;;;6212948;23;20015;-68
2023/01/27 12:41:54;;;;;;;0.65;0.50;;;13.20;75.60;;;;;;6214522;23;20004;-68
2023/01/27 12:44:24;;;;;;;0.95;0.57;;;13.20;75.60;;;;;;6212781;23;20001;-68
2023/01/27 12:47:02;;;;;;;1.02;0.47;;;13.20;75.60;;;;;;6189123;23;20007;-68
2023/01/27 12:49:33;;;;;;;0.82;0.50;;;13.20;75.60;;;;;;6214485;23;20007;-68
2023/01/27 12:52:01;;;;;;;1.02;0.60;;;13.20;75.60;;;;;;6213147;23;20008;-68
2023/01/27 12:54:28;;;;;;;0.82;0.60;;;13.20;75.60;;;;;;6214360;23;20004;-68
2023/01/27 12:56:55;;;;;;;0.70;0.63;;;13.20;75.60;;;;;;6188459;23;20000;-68
2023/01/27 12:59:22;;;;;;;0.50;0.32;;;13.10;75.50;;;;;;6162866;23;20388;-68
2023/01/27 13:02:11;;;;;;;0.90;0.65;;;13.20;75.60;;;;;;6213047;23;20108;-68
2023/01/27 13:04:36;;;;;;;0.50;0.50;;;13.10;75.60;;;;;;6214322;23;20001;-68
2023/01/27 13:07:02;;;;;;;1.00;0.60;;;13.10;75.60;;;;;;6187879;23;20491;-68
2023/01/27 13:09:55;;;;;;;1.52;0.50;;;13.10;75.50;;;;;;6214395;23;20545;-68
2023/01/27 13:12:28;;;;;;;0.60;0.40;;;13.10;75.60;;;;;;6214364;23;20108;-68
2023/01/27 13:15:04;;;;;;;0.75;0.50;;;13.10;75.50;;;;;;6189196;23;20058;-68
2023/01/27 13:17:43;;;;;;;0.40;0.30;;;13.10;75.50;;;;;;6214334;23;20011;-68
2023/01/27 13:20:15;;;;;;;0.52;0.30;;;13.10;75.50;;;;;;6213149;23;20005;-68
2023/01/27 13:22:44;;;;;;;0.90;0.40;;;13.10;75.50;;;;;;6214458;23;20015;-68
2023/01/27 13:25:22;;;;;;;0.75;0.35;;;13.10;75.50;;;;;;6212664;23;20008;-68
2023/01/27 13:27:49;;;;;;;1.30;0.65;;;13.10;75.60;;;;;;6212840;23;20393;-68
2023/01/27 13:30:31;;;;;;;0.77;0.77;;;13.10;75.50;;;;;;6188061;23;20088;-68
2023/01/27 13:33:01;;;;;;;0.47;0.40;;;13.10;75.50;;;;;;6213698;23;20000;-67